sensor_id;sensor_type;location;lat;lon;timestamp;pressure;altitude;pressure_sealevel;temperature;humidity
59417;BME280;45222;52.458;20.914;2023-09-12T00:01:52;100432.96;;;15.51;80.74
59417;BME280;45222;52.458;20.914;2023-09-12T00:05:37;100431.00;;;15.53;80.83
59417;BME280;45222;52.458;20.914;2023-09-12T00:09:22;100424.04;;;15.55;80.66
59417;BME280;45222;52.458;20.914;2023-09-12T00:13:07;100429.20;;;15.53;80.59
59417;BME280;45222;52.458;20.914;2023-09-12T00:16:52;100428.36;;;15.47;80.39
59417;BME280;45222;52.458;20.914;2023-09-12T00:20:40;100426.78;;;15.42;80.37
59417;BME280;45222;52.458;20.914;2023-09-12T00:24:25;100426.78;;;15.36;80.55
59417;BME280;45222;52.458;20.914;2023-09-12T00:28:10;100426.98;;;15.33;80.62
59417;BME280;45222;52.458;20.914;2023-09-12T00:31:55;100430.38;;;15.28;80.60
59417;BME280;45222;52.458;20.914;2023-09-12T00:35:40;100430.34;;;15.15;81.17
59417;BME280;45222;52.458;20.914;2023-09-12T00:39:25;100434.23;;;14.99;81.23
59417;BME280;45222;52.458;20.914;2023-09-12T00:43:11;100431.20;;;14.94;81.36
59417;BME280;45222;52.458;20.914;2023-09-12T00:46:56;100435.37;;;14.96;81.63
59417;BME280;45222;52.458;20.914;2023-09-12T00:50:43;100441.23;;;14.94;81.39
59417;BME280;45222;52.458;20.914;2023-09-12T00:54:28;100437.42;;;14.95;81.20
59417;BME280;45222;52.458;20.914;2023-09-12T00:58:14;100430.97;;;14.95;80.98
59417;BME280;45222;52.458;20.914;2023-09-12T01:02:00;100426.83;;;14.92;80.90
59417;BME280;45222;52.458;20.914;2023-09-12T01:05:48;100425.70;;;14.93;80.94
59417;BME280;45222;52.458;20.914;2023-09-12T01:09:33;100426.80;;;14.95;81.08
59417;BME280;45222;52.458;20.914;2023-09-12T01:13:19;100425.41;;;14.95;81.26
59417;BME280;45222;52.458;20.914;2023-09-12T01:17:04;100421.61;;;14.95;81.18
59417;BME280;45222;52.458;20.914;2023-09-12T01:21:06;100420.33;;;14.96;80.93
59417;BME280;45222;52.458;20.914;2023-09-12T01:29:16;100414.95;;;14.93;80.89
59417;BME280;45222;52.458;20.914;2023-09-12T01:33:03;100413.59;;;14.95;80.92
59417;BME280;45222;52.458;20.914;2023-09-12T01:36:49;100417.77;;;14.97;81.15
59417;BME280;45222;52.458;20.914;2023-09-12T01:40:39;100416.45;;;14.97;81.08
59417;BME280;45222;52.458;20.914;2023-09-12T01:44:28;100417.56;;;14.97;80.89
59417;BME280;45222;52.458;20.914;2023-09-12T01:48:15;100418.52;;;14.96;80.76
59417;BME280;45222;52.458;20.914;2023-09-12T01:52:02;100416.34;;;14.97;80.69
59417;BME280;45222;52.458;20.914;2023-09-12T01:55:48;100414.40;;;14.96;80.77
59417;BME280;45222;52.458;20.914;2023-09-12T01:59:34;100414.07;;;14.96;81.05
59417;BME280;45222;52.458;20.914;2023-09-12T02:03:20;100413.30;;;14.94;80.60
59417;BME280;45222;52.458;20.914;2023-09-12T02:07:05;100415.02;;;14.90;80.51
59417;BME280;45222;52.458;20.914;2023-09-12T02:10:54;100421.52;;;14.83;80.23
59417;BME280;45222;52.458;20.914;2023-09-12T02:14:42;100416.66;;;14.78;80.27
59417;BME280;45222;52.458;20.914;2023-09-12T02:18:27;100418.98;;;14.75;80.56
59417;BME280;45222;52.458;20.914;2023-09-12T02:22:12;100414.67;;;14.75;80.60
59417;BME280;45222;52.458;20.914;2023-09-12T02:25:57;100410.59;;;14.74;80.41
59417;BME280;45222;52.458;20.914;2023-09-12T02:29:43;100415.81;;;14.71;80.28
59417;BME280;45222;52.458;20.914;2023-09-12T02:33:28;100414.00;;;14.66;80.39
59417;BME280;45222;52.458;20.914;2023-09-12T02:37:13;100413.83;;;14.63;80.45
59417;BME280;45222;52.458;20.914;2023-09-12T02:41:00;100415.70;;;14.61;80.72
59417;BME280;45222;52.458;20.914;2023-09-12T02:44:46;100411.73;;;14.62;80.98
59417;BME280;45222;52.458;20.914;2023-09-12T02:48:32;100411.98;;;14.61;80.95
59417;BME280;45222;52.458;20.914;2023-09-12T02:52:17;100413.73;;;14.59;80.83
59417;BME280;45222;52.458;20.914;2023-09-12T02:56:02;100414.26;;;14.57;80.87
59417;BME280;45222;52.458;20.914;2023-09-12T02:59:47;100413.45;;;14.52;80.95
59417;BME280;45222;52.458;20.914;2023-09-12T03:03:33;100415.84;;;14.51;80.99
59417;BME280;45222;52.458;20.914;2023-09-12T03:07:18;100411.94;;;14.51;81.16
59417;BME280;45222;52.458;20.914;2023-09-12T03:11:03;100411.43;;;14.50;81.22
59417;BME280;45222;52.458;20.914;2023-09-12T03:14:49;100413.81;;;14.46;81.11
59417;BME280;45222;52.458;20.914;2023-09-12T03:18:34;100416.68;;;14.44;80.94
59417;BME280;45222;52.458;20.914;2023-09-12T03:22:19;100419.14;;;14.42;80.88
59417;BME280;45222;52.458;20.914;2023-09-12T03:26:05;100416.00;;;14.40;81.20
59417;BME280;45222;52.458;20.914;2023-09-12T03:29:51;100419.70;;;14.41;81.25
59417;BME280;45222;52.458;20.914;2023-09-12T03:33:36;100424.23;;;14.40;81.04
59417;BME280;45222;52.458;20.914;2023-09-12T03:37:21;100425.69;;;14.37;80.95
59417;BME280;45222;52.458;20.914;2023-09-12T03:41:06;100432.38;;;14.33;80.84
59417;BME280;45222;52.458;20.914;2023-09-12T03:44:52;100435.92;;;14.31;81.10
59417;BME280;45222;52.458;20.914;2023-09-12T03:48:37;100433.09;;;14.27;80.99
59417;BME280;45222;52.458;20.914;2023-09-12T03:52:22;100440.11;;;14.24;81.01
59417;BME280;45222;52.458;20.914;2023-09-12T03:56:08;100440.34;;;14.20;81.23
59417;BME280;45222;52.458;20.914;2023-09-12T03:59:54;100439.69;;;14.16;80.99
59417;BME280;45222;52.458;20.914;2023-09-12T04:03:39;100439.44;;;14.09;81.04
59417;BME280;45222;52.458;20.914;2023-09-12T04:07:24;100439.18;;;14.07;81.21
59417;BME280;45222;52.458;20.914;2023-09-12T04:11:09;100439.34;;;14.07;81.44
59417;BME280;45222;52.458;20.914;2023-09-12T04:14:56;100439.61;;;14.09;81.63
59417;BME280;45222;52.458;20.914;2023-09-12T04:18:41;100438.95;;;14.11;81.75
59417;BME280;45222;52.458;20.914;2023-09-12T04:22:26;100435.11;;;14.09;81.66
59417;BME280;45222;52.458;20.914;2023-09-12T04:26:13;100436.58;;;14.09;81.54
59417;BME280;45222;52.458;20.914;2023-09-12T04:29:58;100436.73;;;14.12;81.68
59417;BME280;45222;52.458;20.914;2023-09-12T04:33:43;100437.55;;;14.16;81.74
59417;BME280;45222;52.458;20.914;2023-09-12T04:37:28;100440.80;;;14.21;81.77
59417;BME280;45222;52.458;20.914;2023-09-12T04:41:14;100440.21;;;14.25;81.66
59417;BME280;45222;52.458;20.914;2023-09-12T04:45:01;100445.93;;;14.28;81.56
59417;BME280;45222;52.458;20.914;2023-09-12T04:48:47;100450.35;;;14.29;81.40
59417;BME280;45222;52.458;20.914;2023-09-12T04:52:32;100449.87;;;14.31;81.52
59417;BME280;45222;52.458;20.914;2023-09-12T04:56:17;100447.26;;;14.35;81.73
59417;BME280;45222;52.458;20.914;2023-09-12T05:00:05;100444.08;;;14.43;81.92
59417;BME280;45222;52.458;20.914;2023-09-12T05:03:50;100448.11;;;14.50;81.89
59417;BME280;45222;52.458;20.914;2023-09-12T05:07:36;100447.29;;;14.55;81.90
59417;BME280;45222;52.458;20.914;2023-09-12T05:11:22;100451.23;;;14.60;81.88
59417;BME280;45222;52.458;20.914;2023-09-12T05:15:09;100446.02;;;14.69;82.00
59417;BME280;45222;52.458;20.914;2023-09-12T05:18:55;100449.28;;;14.80;82.19
59417;BME280;45222;52.458;20.914;2023-09-12T05:22:41;100455.59;;;14.96;82.38
59417;BME280;45222;52.458;20.914;2023-09-12T05:26:26;100454.77;;;15.11;82.17
59417;BME280;45222;52.458;20.914;2023-09-12T05:30:13;100457.73;;;15.26;81.75
59417;BME280;45222;52.458;20.914;2023-09-12T05:33:59;100463.58;;;15.43;81.68
59417;BME280;45222;52.458;20.914;2023-09-12T05:37:44;100463.65;;;15.58;81.55
59417;BME280;45222;52.458;20.914;2023-09-12T05:41:30;100462.30;;;15.73;81.77
59417;BME280;45222;52.458;20.914;2023-09-12T05:45:15;100464.23;;;15.87;81.83
59417;BME280;45222;52.458;20.914;2023-09-12T05:49:01;100465.55;;;15.99;81.74
59417;BME280;45222;52.458;20.914;2023-09-12T05:52:46;100463.41;;;16.17;81.91
59417;BME280;45222;52.458;20.914;2023-09-12T05:56:34;100460.10;;;16.36;81.94
59417;BME280;45222;52.458;20.914;2023-09-12T06:00:19;100460.39;;;16.57;81.93
59417;BME280;45222;52.458;20.914;2023-09-12T06:04:06;100464.14;;;16.77;81.73
59417;BME280;45222;52.458;20.914;2023-09-12T06:07:51;100464.56;;;16.96;81.55
59417;BME280;45222;52.458;20.914;2023-09-12T06:11:36;100468.84;;;17.17;81.54
59417;BME280;45222;52.458;20.914;2023-09-12T06:15:22;100464.96;;;17.35;81.79
59417;BME280;45222;52.458;20.914;2023-09-12T06:19:07;100466.88;;;17.57;82.15
59417;BME280;45222;52.458;20.914;2023-09-12T06:22:52;100471.64;;;17.80;82.29
59417;BME280;45222;52.458;20.914;2023-09-12T06:26:38;100470.52;;;18.01;81.97
59417;BME280;45222;52.458;20.914;2023-09-12T06:30:24;100476.83;;;18.24;81.29
59417;BME280;45222;52.458;20.914;2023-09-12T06:34:10;100480.62;;;18.49;80.84
59417;BME280;45222;52.458;20.914;2023-09-12T06:37:56;100479.42;;;18.73;80.47
59417;BME280;45222;52.458;20.914;2023-09-12T06:41:41;100473.98;;;18.96;79.91
59417;BME280;45222;52.458;20.914;2023-09-12T06:45:26;100472.49;;;19.16;79.37
59417;BME280;45222;52.458;20.914;2023-09-12T06:49:11;100464.31;;;19.35;79.12
59417;BME280;45222;52.458;20.914;2023-09-12T06:52:56;100470.67;;;19.56;78.57
59417;BME280;45222;52.458;20.914;2023-09-12T06:56:43;100472.60;;;19.80;78.28
59417;BME280;45222;52.458;20.914;2023-09-12T07:00:28;100474.13;;;20.04;77.89
59417;BME280;45222;52.458;20.914;2023-09-12T07:04:15;100471.54;;;20.26;77.22
59417;BME280;45222;52.458;20.914;2023-09-12T07:08:01;100473.19;;;20.46;76.50
59417;BME280;45222;52.458;20.914;2023-09-12T07:11:46;100477.44;;;20.68;76.40
59417;BME280;45222;52.458;20.914;2023-09-12T07:15:31;100478.95;;;20.92;75.77
59417;BME280;45222;52.458;20.914;2023-09-12T07:19:17;100478.42;;;21.14;74.89
59417;BME280;45222;52.458;20.914;2023-09-12T07:23:02;100478.48;;;21.37;74.26
59417;BME280;45222;52.458;20.914;2023-09-12T07:26:47;100481.58;;;21.58;73.28
59417;BME280;45222;52.458;20.914;2023-09-12T07:30:32;100484.02;;;21.75;71.80
59417;BME280;45222;52.458;20.914;2023-09-12T07:34:17;100480.04;;;21.90;71.49
59417;BME280;45222;52.458;20.914;2023-09-12T07:38:03;100482.42;;;22.09;70.47
59417;BME280;45222;52.458;20.914;2023-09-12T07:41:48;100484.86;;;22.29;70.40
59417;BME280;45222;52.458;20.914;2023-09-12T07:45:34;100481.35;;;22.49;69.75
59417;BME280;45222;52.458;20.914;2023-09-12T07:49:21;100480.04;;;22.66;67.89
59417;BME280;45222;52.458;20.914;2023-09-12T07:53:06;100482.20;;;22.83;67.86
59417;BME280;45222;52.458;20.914;2023-09-12T07:56:52;100478.40;;;23.01;66.44
59417;BME280;45222;52.458;20.914;2023-09-12T08:00:37;100474.99;;;23.17;64.88
59417;BME280;45222;52.458;20.914;2023-09-12T08:04:22;100472.32;;;23.34;64.78
59417;BME280;45222;52.458;20.914;2023-09-12T08:08:08;100473.52;;;23.51;63.99
59417;BME280;45222;52.458;20.914;2023-09-12T08:11:53;100463.28;;;23.66;63.78
59417;BME280;45222;52.458;20.914;2023-09-12T08:15:38;100468.14;;;23.82;63.20
59417;BME280;45222;52.458;20.914;2023-09-12T08:19:23;100469.28;;;23.97;63.04
59417;BME280;45222;52.458;20.914;2023-09-12T08:23:08;100469.45;;;24.15;62.57
59417;BME280;45222;52.458;20.914;2023-09-12T08:26:53;100470.77;;;24.32;61.89
59417;BME280;45222;52.458;20.914;2023-09-12T08:30:39;100473.73;;;24.49;60.91
59417;BME280;45222;52.458;20.914;2023-09-12T08:34:24;100475.41;;;24.68;60.35
59417;BME280;45222;52.458;20.914;2023-09-12T08:38:10;100474.29;;;24.85;59.35
59417;BME280;45222;52.458;20.914;2023-09-12T08:41:56;100470.23;;;25.03;58.45
59417;BME280;45222;52.458;20.914;2023-09-12T08:45:41;100470.81;;;25.19;58.01
59417;BME280;45222;52.458;20.914;2023-09-12T08:49:29;100469.59;;;25.37;58.16
59417;BME280;45222;52.458;20.914;2023-09-12T08:53:15;100473.55;;;25.56;58.13
59417;BME280;45222;52.458;20.914;2023-09-12T08:57:02;100470.42;;;25.76;58.09
59417;BME280;45222;52.458;20.914;2023-09-12T09:00:48;100465.98;;;25.95;57.33
59417;BME280;45222;52.458;20.914;2023-09-12T09:04:34;100466.00;;;26.14;56.28
59417;BME280;45222;52.458;20.914;2023-09-12T09:08:21;100465.40;;;26.33;56.10
59417;BME280;45222;52.458;20.914;2023-09-12T09:12:08;100464.38;;;26.52;54.31
59417;BME280;45222;52.458;20.914;2023-09-12T09:16:11;100464.02;;;26.66;53.59
59417;BME280;45222;52.458;20.914;2023-09-12T09:19:57;100462.82;;;26.81;52.94
59417;BME280;45222;52.458;20.914;2023-09-12T09:23:46;100458.30;;;26.95;52.31
59417;BME280;45222;52.458;20.914;2023-09-12T09:27:33;100458.77;;;27.10;52.09
59417;BME280;45222;52.458;20.914;2023-09-12T09:31:19;100453.38;;;27.26;50.74
59417;BME280;45222;52.458;20.914;2023-09-12T09:35:07;100452.45;;;27.37;50.35
59417;BME280;45222;52.458;20.914;2023-09-12T09:38:54;100447.02;;;27.52;49.97
59417;BME280;45222;52.458;20.914;2023-09-12T09:42:42;100449.08;;;27.70;49.56
59417;BME280;45222;52.458;20.914;2023-09-12T09:46:27;100448.63;;;27.88;48.72
59417;BME280;45222;52.458;20.914;2023-09-12T09:50:15;100447.42;;;27.98;47.55
59417;BME280;45222;52.458;20.914;2023-09-12T09:54:00;100443.27;;;28.11;48.34
59417;BME280;45222;52.458;20.914;2023-09-12T09:57:52;100438.67;;;28.23;47.56
59417;BME280;45222;52.458;20.914;2023-09-12T10:01:37;100438.09;;;28.39;47.17
59417;BME280;45222;52.458;20.914;2023-09-12T10:05:23;100437.94;;;28.54;46.24
59417;BME280;45222;52.458;20.914;2023-09-12T10:09:11;100436.47;;;28.70;46.02
59417;BME280;45222;52.458;20.914;2023-09-12T10:12:58;100435.23;;;28.87;44.83
59417;BME280;45222;52.458;20.914;2023-09-12T10:16:46;100427.06;;;29.08;44.16
59417;BME280;45222;52.458;20.914;2023-09-12T10:20:37;100425.98;;;29.33;42.88
59417;BME280;45222;52.458;20.914;2023-09-12T10:24:28;100428.08;;;29.54;41.87
59417;BME280;45222;52.458;20.914;2023-09-12T10:28:15;100427.86;;;29.78;40.96
59417;BME280;45222;52.458;20.914;2023-09-12T10:32:00;100422.80;;;29.98;40.79
59417;BME280;45222;52.458;20.914;2023-09-12T10:35:46;100426.00;;;30.25;41.41
59417;BME280;45222;52.458;20.914;2023-09-12T10:39:32;100428.10;;;30.47;38.26
59417;BME280;45222;52.458;20.914;2023-09-12T10:43:17;100424.73;;;30.53;36.87
59417;BME280;45222;52.458;20.914;2023-09-12T10:47:04;100423.20;;;30.70;38.51
59417;BME280;45222;52.458;20.914;2023-09-12T10:50:49;100415.67;;;30.95;38.71
59417;BME280;45222;52.458;20.914;2023-09-12T10:54:39;100414.91;;;31.22;39.49
59417;BME280;45222;52.458;20.914;2023-09-12T10:58:24;100405.40;;;31.35;37.05
59417;BME280;45222;52.458;20.914;2023-09-12T11:02:32;100411.34;;;31.33;35.63
59417;BME280;45222;52.458;20.914;2023-09-12T11:06:29;100409.95;;;31.25;35.51
59417;BME280;45222;52.458;20.914;2023-09-12T11:10:20;100412.07;;;31.25;36.02
59417;BME280;45222;52.458;20.914;2023-09-12T11:14:07;100411.27;;;31.24;35.63
59417;BME280;45222;52.458;20.914;2023-09-12T11:18:02;100408.84;;;31.20;35.00
59417;BME280;45222;52.458;20.914;2023-09-12T11:21:54;100403.33;;;31.17;34.99
59417;BME280;45222;52.458;20.914;2023-09-12T11:25:41;100401.98;;;31.19;35.72
59417;BME280;45222;52.458;20.914;2023-09-12T11:29:30;100400.34;;;31.33;35.45
59417;BME280;45222;52.458;20.914;2023-09-12T11:33:20;100394.91;;;31.51;35.94
59417;BME280;45222;52.458;20.914;2023-09-12T11:37:05;100397.89;;;31.75;35.96
59417;BME280;45222;52.458;20.914;2023-09-12T11:40:50;100397.13;;;31.98;36.01
59417;BME280;45222;52.458;20.914;2023-09-12T11:44:35;100394.88;;;32.20;35.78
59417;BME280;45222;52.458;20.914;2023-09-12T11:48:20;100392.33;;;32.45;35.37
59417;BME280;45222;52.458;20.914;2023-09-12T11:52:09;100394.15;;;32.57;33.88
59417;BME280;45222;52.458;20.914;2023-09-12T11:55:56;100395.90;;;32.63;33.91
59417;BME280;45222;52.458;20.914;2023-09-12T11:59:43;100394.84;;;32.77;34.45
59417;BME280;45222;52.458;20.914;2023-09-12T12:03:29;100393.92;;;32.95;33.99
59417;BME280;45222;52.458;20.914;2023-09-12T12:07:14;100390.31;;;33.08;33.30
59417;BME280;45222;52.458;20.914;2023-09-12T12:11:00;100383.44;;;33.23;33.88
59417;BME280;45222;52.458;20.914;2023-09-12T12:14:45;100381.39;;;33.28;33.63
59417;BME280;45222;52.458;20.914;2023-09-12T12:18:30;100383.00;;;33.28;33.25
59417;BME280;45222;52.458;20.914;2023-09-12T12:22:16;100380.50;;;33.22;32.28
59417;BME280;45222;52.458;20.914;2023-09-12T12:26:05;100382.95;;;33.09;32.10
59417;BME280;45222;52.458;20.914;2023-09-12T12:29:50;100385.02;;;32.84;32.02
59417;BME280;45222;52.458;20.914;2023-09-12T12:33:36;100383.92;;;32.69;32.79
59417;BME280;45222;52.458;20.914;2023-09-12T12:37:21;100382.35;;;32.83;33.20
59417;BME280;45222;52.458;20.914;2023-09-12T12:41:06;100384.45;;;32.91;32.33
59417;BME280;45222;52.458;20.914;2023-09-12T12:44:54;100379.15;;;33.00;32.39
59417;BME280;45222;52.458;20.914;2023-09-12T12:48:43;100374.65;;;33.11;32.08
59417;BME280;45222;52.458;20.914;2023-09-12T12:52:29;100372.35;;;32.99;32.14
59417;BME280;45222;52.458;20.914;2023-09-12T12:56:17;100371.09;;;32.95;32.10
59417;BME280;45222;52.458;20.914;2023-09-12T13:00:07;100368.82;;;33.05;32.47
59417;BME280;45222;52.458;20.914;2023-09-12T13:03:53;100366.34;;;33.19;31.51
59417;BME280;45222;52.458;20.914;2023-09-12T13:07:39;100360.64;;;33.24;31.54
59417;BME280;45222;52.458;20.914;2023-09-12T13:11:24;100360.03;;;33.34;32.55
59417;BME280;45222;52.458;20.914;2023-09-12T13:15:11;100357.73;;;33.37;31.63
59417;BME280;45222;52.458;20.914;2023-09-12T13:18:56;100351.71;;;33.28;32.01
59417;BME280;45222;52.458;20.914;2023-09-12T13:22:42;100354.66;;;33.22;32.02
59417;BME280;45222;52.458;20.914;2023-09-12T13:26:27;100354.11;;;33.05;32.22
59417;BME280;45222;52.458;20.914;2023-09-12T13:30:13;100354.14;;;32.75;32.38
59417;BME280;45222;52.458;20.914;2023-09-12T13:33:59;100354.26;;;32.42;32.07
59417;BME280;45222;52.458;20.914;2023-09-12T13:37:44;100353.34;;;32.08;32.75
59417;BME280;45222;52.458;20.914;2023-09-12T13:41:29;100353.84;;;31.89;32.81
59417;BME280;45222;52.458;20.914;2023-09-12T13:45:14;100354.02;;;31.88;32.92
59417;BME280;45222;52.458;20.914;2023-09-12T13:48:59;100354.50;;;31.90;33.00
59417;BME280;45222;52.458;20.914;2023-09-12T13:52:45;100352.66;;;32.08;32.97
59417;BME280;45222;52.458;20.914;2023-09-12T13:56:30;100350.17;;;32.31;33.01
59417;BME280;45222;52.458;20.914;2023-09-12T14:00:16;100355.23;;;32.46;31.98
59417;BME280;45222;52.458;20.914;2023-09-12T14:04:02;100352.19;;;32.56;32.33
59417;BME280;45222;52.458;20.914;2023-09-12T14:07:47;100344.29;;;32.48;33.15
59417;BME280;45222;52.458;20.914;2023-09-12T14:11:32;100349.80;;;32.32;33.05
59417;BME280;45222;52.458;20.914;2023-09-12T14:15:18;100343.16;;;32.05;32.60
59417;BME280;45222;52.458;20.914;2023-09-12T14:19:04;100344.22;;;31.82;34.11
59417;BME280;45222;52.458;20.914;2023-09-12T14:22:50;100345.38;;;31.92;32.92
59417;BME280;45222;52.458;20.914;2023-09-12T14:26:35;100348.57;;;31.83;32.42
59417;BME280;45222;52.458;20.914;2023-09-12T14:30:20;100353.40;;;31.65;33.52
59417;BME280;45222;52.458;20.914;2023-09-12T14:34:07;100356.41;;;31.27;34.52
59417;BME280;45222;52.458;20.914;2023-09-12T14:37:53;100366.63;;;30.84;35.27
59417;BME280;45222;52.458;20.914;2023-09-12T14:41:38;100369.50;;;30.34;35.27
59417;BME280;45222;52.458;20.914;2023-09-12T14:45:24;100371.50;;;30.16;36.65
59417;BME280;45222;52.458;20.914;2023-09-12T14:49:10;100369.72;;;30.14;36.18
59417;BME280;45222;52.458;20.914;2023-09-12T14:52:55;100371.97;;;29.97;36.53
59417;BME280;45222;52.458;20.914;2023-09-12T14:56:40;100368.23;;;29.69;36.94
59417;BME280;45222;52.458;20.914;2023-09-12T15:00:26;100366.86;;;29.60;37.79
59417;BME280;45222;52.458;20.914;2023-09-12T15:04:12;100364.27;;;29.70;37.74
59417;BME280;45222;52.458;20.914;2023-09-12T15:07:57;100366.77;;;29.83;37.44
59417;BME280;45222;52.458;20.914;2023-09-12T15:11:42;100366.48;;;29.98;37.61
59417;BME280;45222;52.458;20.914;2023-09-12T15:15:27;100369.45;;;29.92;37.82
59417;BME280;45222;52.458;20.914;2023-09-12T15:19:13;100368.05;;;29.82;38.20
59417;BME280;45222;52.458;20.914;2023-09-12T15:22:58;100362.25;;;29.81;38.33
59417;BME280;45222;52.458;20.914;2023-09-12T15:26:43;100364.30;;;29.85;39.13
59417;BME280;45222;52.458;20.914;2023-09-12T15:30:29;100368.48;;;29.94;38.76
59417;BME280;45222;52.458;20.914;2023-09-12T15:34:14;100366.74;;;30.00;39.60
59417;BME280;45222;52.458;20.914;2023-09-12T15:37:59;100361.50;;;30.00;39.16
59417;BME280;45222;52.458;20.914;2023-09-12T15:41:44;100366.09;;;29.95;39.47
59417;BME280;45222;52.458;20.914;2023-09-12T15:45:29;100364.97;;;29.92;39.26
59417;BME280;45222;52.458;20.914;2023-09-12T15:49:15;100365.11;;;29.87;40.85
59417;BME280;45222;52.458;20.914;2023-09-12T15:53:00;100358.95;;;29.76;40.56
59417;BME280;45222;52.458;20.914;2023-09-12T15:56:45;100357.35;;;29.60;41.42
59417;BME280;45222;52.458;20.914;2023-09-12T16:00:30;100355.83;;;29.44;41.79
59417;BME280;45222;52.458;20.914;2023-09-12T16:04:16;100360.73;;;29.26;42.40
59417;BME280;45222;52.458;20.914;2023-09-12T16:08:01;100359.62;;;29.02;42.24
59417;BME280;45222;52.458;20.914;2023-09-12T16:11:47;100359.19;;;28.76;43.02
59417;BME280;45222;52.458;20.914;2023-09-12T16:15:34;100364.27;;;28.50;43.79
59417;BME280;45222;52.458;20.914;2023-09-12T16:19:19;100365.44;;;28.18;43.89
59417;BME280;45222;52.458;20.914;2023-09-12T16:23:04;100365.84;;;27.89;45.07
59417;BME280;45222;52.458;20.914;2023-09-12T16:26:49;100366.23;;;27.60;45.97
59417;BME280;45222;52.458;20.914;2023-09-12T16:30:34;100367.52;;;27.30;46.58
59417;BME280;45222;52.458;20.914;2023-09-12T16:34:21;100367.04;;;26.97;47.17
59417;BME280;45222;52.458;20.914;2023-09-12T16:38:08;100370.84;;;26.66;48.05
59417;BME280;45222;52.458;20.914;2023-09-12T16:41:53;100374.20;;;26.31;48.69
59417;BME280;45222;52.458;20.914;2023-09-12T16:45:38;100369.80;;;25.93;49.53
59417;BME280;45222;52.458;20.914;2023-09-12T16:49:23;100370.05;;;25.58;50.28
59417;BME280;45222;52.458;20.914;2023-09-12T16:53:09;100370.73;;;25.28;51.04
59417;BME280;45222;52.458;20.914;2023-09-12T16:56:57;100373.09;;;24.99;51.67
59417;BME280;45222;52.458;20.914;2023-09-12T17:00:42;100375.25;;;24.74;52.32
59417;BME280;45222;52.458;20.914;2023-09-12T17:04:27;100374.92;;;24.48;53.02
59417;BME280;45222;52.458;20.914;2023-09-12T17:08:12;100379.11;;;24.24;53.64
59417;BME280;45222;52.458;20.914;2023-09-12T17:11:58;100380.77;;;24.01;54.13
59417;BME280;45222;52.458;20.914;2023-09-12T17:15:43;100384.11;;;23.78;54.92
59417;BME280;45222;52.458;20.914;2023-09-12T17:19:28;100384.45;;;23.56;55.52
59417;BME280;45222;52.458;20.914;2023-09-12T17:23:13;100385.25;;;23.33;56.24
59417;BME280;45222;52.458;20.914;2023-09-12T17:27:00;100385.66;;;23.11;56.76
59417;BME280;45222;52.458;20.914;2023-09-12T17:30:45;100387.41;;;22.90;57.28
59417;BME280;45222;52.458;20.914;2023-09-12T17:34:39;100389.57;;;22.70;58.02
59417;BME280;45222;52.458;20.914;2023-09-12T17:38:24;100390.82;;;22.50;58.53
59417;BME280;45222;52.458;20.914;2023-09-12T17:42:10;100399.24;;;22.32;58.92
59417;BME280;45222;52.458;20.914;2023-09-12T17:45:55;100400.17;;;22.17;59.39
59417;BME280;45222;52.458;20.914;2023-09-12T17:49:40;100399.48;;;22.00;59.76
59417;BME280;45222;52.458;20.914;2023-09-12T17:53:25;100401.45;;;21.85;60.34
59417;BME280;45222;52.458;20.914;2023-09-12T17:57:12;100401.97;;;21.69;60.70
59417;BME280;45222;52.458;20.914;2023-09-12T18:00:57;100401.54;;;21.58;61.57
59417;BME280;45222;52.458;20.914;2023-09-12T18:04:43;100406.48;;;21.50;62.19
59417;BME280;45222;52.458;20.914;2023-09-12T18:08:28;100409.38;;;21.42;62.69
59417;BME280;45222;52.458;20.914;2023-09-12T18:12:14;100407.98;;;21.32;62.78
59417;BME280;45222;52.458;20.914;2023-09-12T18:15:59;100404.58;;;21.20;62.93
59417;BME280;45222;52.458;20.914;2023-09-12T18:19:45;100407.77;;;21.07;63.25
59417;BME280;45222;52.458;20.914;2023-09-12T18:23:30;100411.00;;;20.94;63.09
59417;BME280;45222;52.458;20.914;2023-09-12T18:27:15;100412.29;;;20.83;63.33
59417;BME280;45222;52.458;20.914;2023-09-12T18:31:00;100410.75;;;20.72;63.82
59417;BME280;45222;52.458;20.914;2023-09-12T18:34:45;100407.11;;;20.60;64.25
59417;BME280;45222;52.458;20.914;2023-09-12T18:38:34;100410.73;;;20.52;64.72
59417;BME280;45222;52.458;20.914;2023-09-12T18:42:19;100412.59;;;20.46;65.38
59417;BME280;45222;52.458;20.914;2023-09-12T18:46:06;100413.27;;;20.36;65.82
59417;BME280;45222;52.458;20.914;2023-09-12T18:49:52;100414.17;;;20.23;65.60
59417;BME280;45222;52.458;20.914;2023-09-12T18:53:37;100412.73;;;20.13;65.61
59417;BME280;45222;52.458;20.914;2023-09-12T18:57:23;100412.78;;;20.04;65.66
59417;BME280;45222;52.458;20.914;2023-09-12T19:01:08;100414.56;;;19.94;65.75
59417;BME280;45222;52.458;20.914;2023-09-12T19:05:00;100415.38;;;19.84;66.05
59417;BME280;45222;52.458;20.914;2023-09-12T19:08:49;100410.05;;;19.77;66.54
59417;BME280;45222;52.458;20.914;2023-09-12T19:12:38;100410.35;;;19.71;66.96
59417;BME280;45222;52.458;20.914;2023-09-12T19:16:24;100407.41;;;19.62;67.35
59417;BME280;45222;52.458;20.914;2023-09-12T19:20:10;100404.38;;;19.52;67.34
59417;BME280;45222;52.458;20.914;2023-09-12T19:23:56;100406.59;;;19.46;67.57
59417;BME280;45222;52.458;20.914;2023-09-12T19:27:41;100408.57;;;19.39;67.68
59417;BME280;45222;52.458;20.914;2023-09-12T19:31:27;100408.91;;;19.31;67.89